Time;durP1;ratioP1;P1;durP2;ratioP2;P2;SDS_P1;SDS_P2;PMS_P1;PMS_P2;Temp;Humidity;BMP_temperature;BMP_pressure;BME280_temperature;BME280_humidity;BME280_pressure;Samples;Min_cycle;Max_cycle;Signal;HPM_P1;HPM_P2
2022/03/25 00:00:12;;;;;;;32.03;22.25;;;;;;;8.77;66.95;100367.25;4995592;28;20212;-80
2022/03/25 00:02:39;;;;;;;29.13;20.45;;;;;;;8.69;67.36;100370.25;4995539;28;20184;-80
2022/03/25 00:05:07;;;;;;;33.08;22.20;;;;;;;8.71;67.31;100371.06;4995070;28;20207;-80
2022/03/25 00:07:34;;;;;;;29.58;22.10;;;;;;;8.35;69.40;100368.78;4995806;28;20303;-81
2022/03/25 00:10:01;;;;;;;31.40;21.85;;;;;;;8.27;70.16;100368.16;4995807;28;20184;-80
2022/03/25 00:12:29;;;;;;;36.05;22.48;;;;;;;8.30;69.89;100370.75;4995384;28;20225;-80
2022/03/25 00:14:56;;;;;;;36.03;22.70;;;;;;;8.34;69.32;100367.03;4995755;28;20619;-80
2022/03/25 00:17:23;;;;;;;33.03;22.80;;;;;;;8.18;70.15;100368.50;4995731;28;20192;-81
2022/03/25 00:19:49;;;;;;;37.80;24.35;;;;;;;8.18;70.59;100370.31;4995590;28;20199;-81
2022/03/25 00:22:16;;;;;;;32.60;23.65;;;;;;;8.17;70.42;100369.47;4995432;28;20189;-81
2022/03/25 00:24:42;;;;;;;40.88;24.17;;;;;;;8.09;71.20;100369.72;4995035;28;20286;-80
2022/03/25 00:27:09;;;;;;;35.05;23.05;;;;;;;8.23;70.64;100358.50;4995038;28;20234;-80
2022/03/25 00:29:38;;;;;;;35.05;23.27;;;;;;;8.12;70.71;100372.31;4994968;28;20587;-80
2022/03/25 00:32:05;;;;;;;34.75;22.05;;;;;;;8.07;71.05;100374.28;4995087;28;20212;-80
2022/03/25 00:34:32;;;;;;;36.45;23.75;;;;;;;8.23;70.34;100368.34;4995138;28;20184;-80
2022/03/25 00:36:58;;;;;;;34.05;23.90;;;;;;;8.08;71.12;100373.34;4995204;28;20186;-80
2022/03/25 00:39:25;;;;;;;33.15;22.23;;;;;;;8.14;70.88;100366.91;4995254;28;20386;-80
2022/03/25 00:41:51;;;;;;;32.67;22.60;;;;;;;8.12;70.75;100369.63;4994999;28;20188;-80
2022/03/25 00:44:19;;;;;;;30.45;22.55;;;;;;;8.17;70.71;100364.09;4994644;28;20210;-80
2022/03/25 00:46:47;;;;;;;35.05;23.25;;;;;;;8.27;70.23;100361.94;4994878;28;20185;-80
2022/03/25 00:49:14;;;;;;;35.38;22.38;;;;;;;8.07;71.27;100357.28;4995775;28;20526;-80
2022/03/25 00:51:40;;;;;;;30.95;22.17;;;;;;;8.01;71.47;100353.03;4994835;28;20235;-80
2022/03/25 00:54:08;;;;;;;33.03;20.98;;;;;;;8.05;71.20;100357.38;4994464;28;20193;-80
2022/03/25 00:56:35;;;;;;;34.63;20.48;;;;;;;7.81;72.76;100356.41;4994936;28;20229;-80
2022/03/25 00:59:02;;;;;;;31.98;22.08;;;;;;;7.69;73.19;100355.03;4994451;28;20298;-80
2022/03/25 01:01:28;;;;;;;31.42;21.55;;;;;;;7.63;73.69;100354.38;4994375;28;20263;-80
2022/03/25 01:03:56;;;;;;;35.92;22.52;;;;;;;7.45;74.99;100358.53;4994575;28;20689;-80
2022/03/25 01:06:24;;;;;;;32.47;21.20;;;;;;;7.41;75.44;100351.53;4994632;28;20208;-80
2022/03/25 01:08:51;;;;;;;36.92;22.88;;;;;;;7.41;75.39;100351.53;4994511;28;20615;-80
2022/03/25 01:11:17;;;;;;;33.47;22.58;;;;;;;7.36;76.21;100353.47;4994521;28;20270;-81
2022/03/25 01:13:44;;;;;;;35.90;22.90;;;;;;;7.42;75.89;100350.63;4993856;28;20282;-81
2022/03/25 01:16:11;;;;;;;29.85;20.00;;;;;;;7.57;74.65;100344.72;4994087;28;20278;-81
2022/03/25 01:18:38;;;;;;;34.30;21.75;;;;;;;7.66;73.83;100352.44;4994370;28;20614;-81
2022/03/25 01:21:06;;;;;;;35.10;22.88;;;;;;;7.55;73.95;100346.56;4994152;28;20191;-81
2022/03/25 01:23:33;;;;;;;33.05;22.25;;;;;;;7.39;75.06;100356.91;4993585;28;20694;-79
2022/03/25 01:25:59;;;;;;;30.40;21.73;;;;;;;7.37;75.20;100350.75;4994270;28;20197;-81
2022/03/25 01:28:32;;;;;;;32.28;21.85;;;;;;;7.29;75.74;100359.03;4994232;28;20625;-81
2022/03/25 01:31:00;;;;;;;32.90;22.42;;;;;;;7.22;76.35;100351.25;4994383;28;20189;-80
2022/03/25 01:33:27;;;;;;;33.03;21.05;;;;;;;7.16;76.45;100352.31;4993342;28;20191;-81
2022/03/25 01:35:54;;;;;;;33.58;21.58;;;;;;;7.09;77.34;100356.13;4993847;28;20238;-80
2022/03/25 01:38:22;;;;;;;39.30;22.98;;;;;;;7.19;76.96;100352.25;4993934;28;20274;-80
2022/03/25 01:40:49;;;;;;;34.45;21.20;;;;;;;6.97;78.22;100341.31;4994036;28;20195;-79
2022/03/25 01:43:16;;;;;;;31.58;21.67;;;;;;;6.84;79.03;100351.53;4994121;28;20700;-81
2022/03/25 01:45:42;;;;;;;36.83;24.05;;;;;;;6.83;78.91;100344.44;4993599;28;20278;-81
2022/03/25 01:48:10;;;;;;;35.03;22.67;;;;;;;6.85;79.16;100341.69;4993705;28;20215;-81
2022/03/25 01:50:38;;;;;;;37.72;22.15;;;;;;;6.94;78.31;100336.03;4993581;28;20299;-81
2022/03/25 01:53:10;;;;;;;32.97;22.92;;;;;;;6.89;78.55;100335.31;4993637;28;20279;-81
2022/03/25 01:55:43;;;;;;;34.72;22.45;;;;;;;6.91;78.36;100333.47;4994123;28;20198;-81
2022/03/25 01:58:12;;;;;;;33.63;23.15;;;;;;;6.96;77.83;100333.31;4993922;28;20600;-80
2022/03/25 02:00:40;;;;;;;31.73;22.58;;;;;;;6.82;78.31;100339.97;4993690;28;20573;-80
2022/03/25 02:03:07;;;;;;;37.28;25.10;;;;;;;6.60;79.87;100336.22;4993573;28;20618;-80
2022/03/25 02:05:35;;;;;;;37.35;22.42;;;;;;;6.66;80.09;100338.72;4993558;28;20231;-80
2022/03/25 02:08:02;;;;;;;39.00;24.23;;;;;;;6.74;79.25;100339.38;4993905;28;20203;-79
2022/03/25 02:10:29;;;;;;;32.38;21.92;;;;;;;6.64;79.92;100330.72;4994092;28;20621;-80
2022/03/25 02:12:57;;;;;;;42.47;24.60;;;;;;;6.53;80.70;100334.66;4974013;28;20228;-80
2022/03/25 02:15:35;;;;;;;38.72;23.55;;;;;;;6.59;81.08;100334.47;4974630;28;20227;-80
2022/03/25 02:18:03;;;;;;;39.38;23.17;;;;;;;6.66;80.41;100331.56;4974719;28;20291;-81
2022/03/25 02:20:30;;;;;;;38.85;22.55;;;;;;;6.73;79.48;100324.22;4987522;28;20195;-81
2022/03/25 02:22:58;;;;;;;37.83;22.67;;;;;;;6.78;78.82;100332.97;4994125;28;20202;-81
2022/03/25 02:25:29;;;;;;;30.25;22.05;;;;;;;6.65;79.71;100334.28;4994015;28;20630;-81
2022/03/25 02:27:57;;;;;;;32.10;22.67;;;;;;;6.50;80.62;100332.06;4993025;28;20214;-81
2022/03/25 02:30:24;;;;;;;32.10;21.73;;;;;;;6.50;80.87;100332.06;4993894;28;20282;-81
2022/03/25 02:32:51;;;;;;;32.83;22.48;;;;;;;6.40;81.16;100329.66;4994159;28;20231;-81
2022/03/25 02:35:17;;;;;;;34.13;22.15;;;;;;;6.41;81.11;100331.41;4994080;28;20191;-81
2022/03/25 02:37:44;;;;;;;35.38;21.13;;;;;;;6.33;81.45;100325.44;4993227;28;20530;-81
2022/03/25 02:40:12;;;;;;;31.83;21.77;;;;;;;6.29;82.15;100329.09;4993415;28;20609;-81
2022/03/25 02:42:39;;;;;;;34.00;22.52;;;;;;;6.09;83.63;100328.78;4993403;28;20531;-81
2022/03/25 02:45:08;;;;;;;36.72;23.52;;;;;;;6.13;83.57;100330.44;4993229;28;20650;-81
2022/03/25 02:47:35;;;;;;;34.88;23.25;;;;;;;6.16;83.53;100327.69;4992702;28;20195;-81
2022/03/25 02:50:02;;;;;;;38.15;23.98;;;;;;;6.11;83.90;100329.63;4993390;28;20193;-81
2022/03/25 02:52:29;;;;;;;35.97;22.25;;;;;;;6.07;84.52;100327.97;4992733;28;20195;-81
2022/03/25 02:54:56;;;;;;;35.78;22.48;;;;;;;5.89;85.31;100324.84;4992995;28;20185;-81
2022/03/25 02:57:24;;;;;;;36.63;23.27;;;;;;;6.05;84.45;100328.00;4995676;28;20201;-81
2022/03/25 02:59:50;;;;;;;33.50;22.00;;;;;;;6.05;84.25;100328.88;4997547;28;20589;-81
2022/03/25 03:02:17;;;;;;;36.17;21.85;;;;;;;5.94;84.94;100330.97;4995777;28;20748;-81
2022/03/25 03:04:44;;;;;;;42.60;24.40;;;;;;;5.89;85.63;100329.31;4996230;28;20202;-81
2022/03/25 03:07:10;;;;;;;37.15;23.60;;;;;;;5.90;84.90;100326.59;4995698;28;20245;-81
2022/03/25 03:09:37;;;;;;;35.28;23.40;;;;;;;5.82;85.83;100325.94;4995973;28;20251;-81
2022/03/25 03:12:04;;;;;;;36.15;23.70;;;;;;;5.89;85.38;100332.84;4996098;28;20547;-81
2022/03/25 03:14:32;;;;;;;35.20;22.38;;;;;;;5.87;85.57;100328.47;4995724;28;20274;-81
2022/03/25 03:16:59;;;;;;;34.28;23.00;;;;;;;5.92;84.96;100327.41;4995548;28;20548;-81
2022/03/25 03:19:26;;;;;;;36.33;22.63;;;;;;;5.79;85.61;100332.25;4995674;28;20186;-81
2022/03/25 03:21:53;;;;;;;37.80;23.55;;;;;;;5.80;85.81;100325.97;4996243;28;20270;-81
2022/03/25 03:24:20;;;;;;;38.88;23.75;;;;;;;5.76;86.00;100321.59;4995817;28;20540;-81
2022/03/25 03:26:47;;;;;;;38.85;22.50;;;;;;;5.68;86.30;100325.44;4995428;28;20198;-81
2022/03/25 03:29:13;;;;;;;35.42;21.40;;;;;;;5.66;86.46;100317.44;4995667;28;20757;-81
2022/03/25 03:31:41;;;;;;;37.55;23.30;;;;;;;5.73;86.14;100318.16;4995755;28;20198;-81
2022/03/25 03:34:08;;;;;;;34.35;22.60;;;;;;;5.59;87.02;100308.72;4994518;28;20203;-81
2022/03/25 03:36:35;;;;;;;35.25;21.10;;;;;;;5.64;86.45;100314.81;4994971;28;20201;-81
2022/03/25 03:39:01;;;;;;;38.63;22.90;;;;;;;5.52;87.43;100320.47;4995484;28;20205;-81
2022/03/25 03:41:28;;;;;;;35.65;22.90;;;;;;;5.47;88.00;100314.34;4994842;28;20239;-81
2022/03/25 03:43:55;;;;;;;35.70;22.92;;;;;;;5.59;86.90;100311.38;4995317;28;20653;-81
2022/03/25 03:46:21;;;;;;;40.85;22.98;;;;;;;5.51;87.58;100313.38;4995309;28;20758;-81
2022/03/25 03:48:49;;;;;;;46.20;23.92;;;;;;;5.40;87.78;100310.09;4995744;28;20668;-81
2022/03/25 03:51:16;;;;;;;38.25;24.30;;;;;;;5.47;87.48;100311.69;4995371;28;20203;-81
2022/03/25 03:53:43;;;;;;;37.47;22.98;;;;;;;5.39;88.57;100309.22;4995402;28;20192;-81
2022/03/25 03:56:09;;;;;;;35.72;22.38;;;;;;;5.32;88.72;100312.97;4994992;28;20271;-81
2022/03/25 03:58:36;;;;;;;39.70;25.02;;;;;;;5.36;89.19;100311.97;4995441;28;20650;-81
2022/03/25 04:01:03;;;;;;;33.77;22.57;;;;;;;5.33;88.51;100306.69;4958014;28;1100619;-81
2022/03/25 04:03:30;;;;;;;38.30;24.10;;;;;;;5.21;89.72;100315.03;4996761;28;20258;-80
2022/03/25 04:05:58;;;;;;;36.17;23.15;;;;;;;5.28;89.82;100305.06;4996183;28;20637;-81
2022/03/25 04:08:25;;;;;;;42.38;24.52;;;;;;;5.05;91.48;100311.84;4995959;28;20567;-81
2022/03/25 04:10:52;;;;;;;39.30;23.67;;;;;;;5.20;91.35;100315.94;4996558;28;20282;-81
2022/03/25 04:13:18;;;;;;;38.85;23.48;;;;;;;5.08;92.08;100313.56;5000617;28;20200;-80
2022/03/25 04:15:45;;;;;;;38.85;24.38;;;;;;;5.06;92.08;100316.28;5008226;28;20202;-80
2022/03/25 04:18:11;;;;;;;35.70;21.60;;;;;;;5.07;92.05;100314.50;4996053;28;20184;-80
2022/03/25 04:20:38;;;;;;;38.08;23.50;;;;;;;5.02;91.88;100317.28;4996239;28;20207;-80
2022/03/25 04:23:06;;;;;;;34.70;23.35;;;;;;;5.35;90.16;100314.69;4996003;28;20628;-80
2022/03/25 04:25:33;;;;;;;40.45;23.88;;;;;;;5.23;89.99;100310.53;4995401;28;20514;-82
2022/03/25 04:28:00;;;;;;;34.65;23.38;;;;;;;5.31;89.12;100315.66;4995992;28;20185;-81
2022/03/25 04:30:28;;;;;;;36.58;23.63;;;;;;;5.19;89.77;100323.06;4995590;28;20216;-81
2022/03/25 04:32:56;;;;;;;37.38;23.27;;;;;;;5.07;90.12;100319.84;4996106;28;20221;-81
2022/03/25 04:35:23;;;;;;;37.10;23.33;;;;;;;5.10;90.45;100320.63;5009754;28;20235;-80
2022/03/25 04:37:50;;;;;;;40.58;24.23;;;;;;;4.96;91.17;100314.75;4994388;28;20268;-81
2022/03/25 04:40:20;;;;;;;41.92;25.15;;;;;;;5.11;90.32;100319.72;4995948;28;20595;-80
2022/03/25 04:42:47;;;;;;;37.35;23.05;;;;;;;4.90;91.72;100322.88;4995479;28;20201;-81
2022/03/25 04:45:14;;;;;;;39.05;22.45;;;;;;;5.06;90.35;100318.94;4996061;28;20664;-80
2022/03/25 04:47:42;;;;;;;37.92;22.60;;;;;;;5.05;90.66;100321.66;4995495;28;20209;-80
2022/03/25 04:50:09;;;;;;;36.80;22.50;;;;;;;4.95;91.00;100318.31;4995592;28;20249;-80
2022/03/25 04:52:36;;;;;;;44.55;22.45;;;;;;;4.81;91.64;100314.16;4995752;28;20537;-81
2022/03/25 04:55:03;;;;;;;37.00;23.33;;;;;;;4.81;92.06;100313.31;4995320;28;20301;-80
2022/03/25 04:57:31;;;;;;;35.65;22.58;;;;;;;4.92;91.77;100316.59;4994736;28;20550;-80
2022/03/25 04:59:58;;;;;;;39.65;25.80;;;;;;;4.71;92.44;100325.97;4995497;28;20289;-80
2022/03/25 05:02:26;;;;;;;40.13;23.13;;;;;;;4.66;93.14;100324.31;4988976;28;20196;-81
2022/03/25 05:04:55;;;;;;;38.45;22.88;;;;;;;4.65;92.96;100323.44;4975879;28;20195;-80
2022/03/25 05:07:22;;;;;;;38.20;23.20;;;;;;;4.65;93.04;100319.91;4980240;28;20192;-81
2022/03/25 05:09:49;;;;;;;43.80;25.58;;;;;;;4.71;93.18;100327.78;4995625;28;20233;-81
2022/03/25 05:12:16;;;;;;;38.20;22.95;;;;;;;4.72;92.12;100321.53;4996033;28;20530;-80
2022/03/25 05:14:44;;;;;;;35.38;22.85;;;;;;;4.78;92.42;100329.41;4995403;28;20208;-80
2022/03/25 05:17:11;;;;;;;38.90;24.15;;;;;;;4.75;92.26;100327.69;4992632;28;20275;-80
2022/03/25 05:19:37;;;;;;;36.25;23.40;;;;;;;4.76;92.19;100326.75;4975007;28;20200;-81
2022/03/25 05:22:05;;;;;;;39.47;23.95;;;;;;;4.67;92.42;100326.09;4990132;28;20278;-80
2022/03/25 05:24:32;;;;;;;38.65;24.50;;;;;;;4.60;93.18;100328.00;4995071;28;20286;-81
2022/03/25 05:26:59;;;;;;;48.63;24.55;;;;;;;4.65;94.03;100327.91;4981639;28;20627;-81
2022/03/25 05:29:25;;;;;;;41.83;22.45;;;;;;;4.53;94.16;100334.41;4975085;28;20266;-81
2022/03/25 05:31:54;;;;;;;38.40;24.00;;;;;;;4.60;93.82;100336.03;4976359;28;20554;-80
2022/03/25 05:34:20;;;;;;;42.67;23.77;;;;;;;4.55;94.04;100335.25;4992663;28;20287;-81
2022/03/25 05:36:47;;;;;;;39.35;23.95;;;;;;;4.55;94.32;100344.13;4994926;28;20734;-81
2022/03/25 05:39:14;;;;;;;38.30;23.60;;;;;;;4.50;94.18;100340.69;4994967;28;20574;-80
2022/03/25 05:41:41;;;;;;;40.58;24.33;;;;;;;4.37;95.69;100342.72;4994925;28;20241;-82
2022/03/25 05:44:09;;;;;;;35.90;22.67;;;;;;;4.43;95.52;100346.16;4979162;28;20555;-80
2022/03/25 05:46:36;;;;;;;38.22;23.75;;;;;;;4.43;95.67;100348.81;4975220;28;20305;-82
2022/03/25 05:49:04;;;;;;;41.40;23.45;;;;;;;4.60;95.04;100352.88;4975176;28;20212;-80
2022/03/25 05:51:30;;;;;;;40.72;22.80;;;;;;;4.63;94.27;100354.63;4975217;28;20215;-81
2022/03/25 05:53:57;;;;;;;43.05;24.05;;;;;;;4.54;94.58;100360.16;4976211;28;20196;-80
2022/03/25 05:56:24;;;;;;;44.05;25.02;;;;;;;4.60;94.48;100357.34;4970004;28;20215;-81
2022/03/25 05:58:52;;;;;;;41.47;23.90;;;;;;;4.59;94.03;100358.28;4974881;28;20208;-82
2022/03/25 06:01:19;;;;;;;39.00;24.35;;;;;;;4.35;96.35;100362.34;4986048;28;20236;-80
2022/03/25 06:03:46;;;;;;;37.15;23.70;;;;;;;4.77;93.77;100364.97;4994241;28;20387;-82
2022/03/25 06:06:14;;;;;;;46.92;25.42;;;;;;;4.87;91.99;100357.66;4994175;28;20284;-81
2022/03/25 06:08:40;;;;;;;45.42;25.23;;;;;;;4.92;91.31;100353.97;4994287;28;20610;-81
2022/03/25 06:11:07;;;;;;;42.85;25.30;;;;;;;4.75;91.59;100367.69;4994112;28;20216;-81
2022/03/25 06:13:34;;;;;;;39.90;23.02;;;;;;;4.70;92.84;100368.69;4994266;28;20636;-82
2022/03/25 06:16:00;;;;;;;45.25;23.42;;;;;;;4.86;92.55;100363.91;4994305;28;20183;-81
2022/03/25 06:18:27;;;;;;;45.47;24.55;;;;;;;4.95;91.49;100374.38;4994287;28;20313;-80
2022/03/25 06:20:53;;;;;;;39.15;24.40;;;;;;;4.87;91.79;100371.88;4990035;28;20675;-81
2022/03/25 06:23:21;;;;;;;37.83;23.80;;;;;;;4.74;92.87;100373.06;4974148;28;20189;-82
2022/03/25 06:25:48;;;;;;;40.08;25.48;;;;;;;5.01;91.97;100369.75;4974171;28;20207;-81
2022/03/25 06:28:15;;;;;;;47.17;25.83;;;;;;;5.04;90.85;100374.16;4974206;28;20192;-82
2022/03/25 06:30:43;;;;;;;45.47;24.88;;;;;;;5.18;90.61;100376.53;4974223;28;20230;-82
2022/03/25 06:33:11;;;;;;;43.83;26.55;;;;;;;5.26;90.25;100382.53;4973882;28;20214;-81
2022/03/25 06:35:39;;;;;;;39.28;24.77;;;;;;;5.33;88.97;100377.94;4974632;28;20193;-82
2022/03/25 06:38:06;;;;;;;40.47;24.73;;;;;;;5.43;88.54;100371.47;4973625;28;20224;-82
2022/03/25 06:40:34;;;;;;;47.58;24.45;;;;;;;5.38;89.03;100378.69;4973104;28;20206;-82
2022/03/25 06:43:01;;;;;;;44.35;27.05;;;;;;;5.49;87.90;100379.31;4973872;28;20543;-81
2022/03/25 06:45:28;;;;;;;44.63;26.10;;;;;;;5.58;87.76;100380.88;4973446;28;20230;-81
2022/03/25 06:47:55;;;;;;;47.85;27.60;;;;;;;5.58;87.81;100380.88;4973932;28;20287;-81
2022/03/25 06:50:24;;;;;;;42.20;25.75;;;;;;;5.61;86.73;100388.84;4976839;28;20558;-81
2022/03/25 06:52:51;;;;;;;40.92;25.80;;;;;;;5.88;85.67;100389.91;4992710;28;20203;-81
2022/03/25 06:55:19;;;;;;;42.55;25.33;;;;;;;5.97;84.46;100389.72;4993211;28;20560;-81
2022/03/25 06:57:47;;;;;;;37.47;25.10;;;;;;;5.92;84.87;100390.69;4993341;28;20624;-80
2022/03/25 07:00:14;;;;;;;42.25;25.42;;;;;;;5.94;84.49;100388.88;4974077;28;20290;-81
2022/03/25 07:02:43;;;;;;;42.92;25.70;;;;;;;6.11;83.92;100393.81;4973780;28;20623;-81
2022/03/25 07:05:11;;;;;;;49.78;26.42;;;;;;;6.19;83.29;100399.81;4991419;28;20207;-82
2022/03/25 07:07:40;;;;;;;46.70;27.92;;;;;;;6.37;82.68;100399.28;4993520;28;20547;-81
2022/03/25 07:10:09;;;;;;;41.42;24.95;;;;;;;6.36;81.42;100396.69;4993190;28;20281;-81
2022/03/25 07:12:36;;;;;;;47.83;26.40;;;;;;;6.50;81.00;100393.63;4993431;28;20191;-81
2022/03/25 07:15:05;;;;;;;42.55;25.33;;;;;;;6.67;79.92;100393.97;4992975;28;20199;-81
2022/03/25 07:17:32;;;;;;;47.22;27.85;;;;;;;6.92;78.47;100395.91;4981717;28;20661;-85
2022/03/25 07:19:59;;;;;;;48.80;26.73;;;;;;;6.97;76.54;100399.34;4972899;28;20188;-81
2022/03/25 07:22:26;;;;;;;41.78;25.55;;;;;;;7.01;76.64;100401.00;4973383;28;20214;-80
2022/03/25 07:24:52;;;;;;;45.17;26.88;;;;;;;7.16;76.01;100395.16;4973237;28;20223;-80
2022/03/25 07:27:19;;;;;;;43.67;25.67;;;;;;;7.64;72.61;100391.84;4972858;28;20192;-81
2022/03/25 07:29:45;;;;;;;48.50;27.60;;;;;;;7.91;69.96;100390.03;4973006;28;20232;-81
2022/03/25 07:32:13;;;;;;;40.28;26.10;;;;;;;7.91;70.50;100392.72;4972675;28;20195;-86
2022/03/25 07:34:40;;;;;;;67.18;33.40;;;;;;;8.06;68.52;100393.09;4991287;28;20199;-82
2022/03/25 07:37:07;;;;;;;51.10;28.58;;;;;;;8.30;66.77;100392.22;4992037;28;20602;-80
2022/03/25 07:39:34;;;;;;;53.03;27.98;;;;;;;8.23;66.88;100397.84;4991716;28;20531;-80
2022/03/25 07:42:00;;;;;;;50.95;28.52;;;;;;;8.36;66.05;100389.31;4992467;28;20273;-81
2022/03/25 07:44:27;;;;;;;50.08;26.95;;;;;;;8.30;66.17;100392.22;4995009;28;20254;-81
2022/03/25 07:46:54;;;;;;;50.00;28.90;;;;;;;8.59;64.29;100392.13;4995038;28;20223;-81
2022/03/25 07:49:22;;;;;;;43.58;27.00;;;;;;;8.77;62.87;100394.09;4994865;28;20232;-80
2022/03/25 07:52:31;;;;;;;49.35;28.83;;;;;;;8.88;62.00;100397.25;4998910;28;20194;-84
2022/03/25 07:54:57;;;;;;;50.45;28.00;;;;;;;9.16;60.43;100393.50;4994746;28;20554;-79
2022/03/25 07:57:24;;;;;;;52.08;28.83;;;;;;;9.25;58.81;100390.47;4994666;28;20185;-78
2022/03/25 07:59:51;;;;;;;45.20;27.63;;;;;;;9.27;58.65;100393.97;4994539;28;20538;-78
2022/03/25 08:02:18;;;;;;;44.33;28.25;;;;;;;9.27;58.06;100396.66;4994343;28;20228;-79
2022/03/25 08:04:46;;;;;;;47.42;29.25;;;;;;;9.55;57.53;100395.53;4994195;28;20201;-77
2022/03/25 08:07:13;;;;;;;43.80;28.90;;;;;;;9.85;56.24;100387.97;4994806;28;20194;-80
2022/03/25 08:09:39;;;;;;;45.30;27.65;;;;;;;9.84;55.96;100390.75;4994261;28;20222;-79
2022/03/25 08:12:07;;;;;;;52.42;30.02;;;;;;;10.11;54.90;100389.56;4994315;28;20201;-78
2022/03/25 08:14:35;;;;;;;42.40;27.15;;;;;;;10.25;54.31;100391.63;4994198;28;20262;-78
2022/03/25 08:17:01;;;;;;;45.08;29.08;;;;;;;10.38;53.51;100389.31;4992652;28;20642;-79
2022/03/25 08:19:30;;;;;;;71.00;31.10;;;;;;;10.62;52.55;100401.63;4982677;28;20241;-80
2022/03/25 08:21:58;;;;;;;43.20;28.73;;;;;;;10.93;51.52;100397.53;4992276;28;20230;-79
2022/03/25 08:29:55;;;;;;;46.75;29.13;;;;;;;11.46;48.81;100391.41;4991115;28;20673;-78
2022/03/25 08:32:21;;;;;;;46.25;30.52;;;;;;;11.70;47.86;100393.81;4994542;28;20542;-78
2022/03/25 08:34:48;;;;;;;48.95;29.90;;;;;;;11.91;47.97;100391.03;4994006;28;20196;-79
2022/03/25 08:37:16;;;;;;;50.13;30.50;;;;;;;12.14;47.59;100395.22;4993680;28;20207;-78
2022/03/25 08:39:42;;;;;;;49.88;30.88;;;;;;;12.37;46.16;100391.31;4994221;28;20192;-77
2022/03/25 08:42:10;;;;;;;48.47;31.17;;;;;;;12.27;46.51;100393.63;4994346;28;20188;-77
2022/03/25 08:44:36;;;;;;;49.13;31.75;;;;;;;12.58;45.74;100394.72;4992280;28;20211;-77
2022/03/25 08:47:03;;;;;;;51.67;31.80;;;;;;;12.81;44.80;100388.94;4994958;28;20513;-78
2022/03/25 08:49:32;;;;;;;50.22;31.63;;;;;;;12.80;43.49;100389.00;4993772;28;20652;-77
2022/03/25 08:51:59;;;;;;;48.38;30.75;;;;;;;12.80;43.21;100397.09;4993868;28;20284;-77
2022/03/25 08:54:27;;;;;;;47.80;30.80;;;;;;;12.68;43.01;100396.81;4992695;28;20668;-79
2022/03/25 08:56:54;;;;;;;52.35;32.30;;;;;;;13.03;42.55;100396.72;4994036;28;20193;-77
2022/03/25 08:59:20;;;;;;;46.30;29.58;;;;;;;13.11;42.67;100393.59;4993915;28;20203;-78
2022/03/25 09:01:47;;;;;;;51.70;32.08;;;;;;;13.35;41.98;100389.53;4992815;28;20238;-78
2022/03/25 09:04:13;;;;;;;46.95;30.55;;;;;;;13.64;41.38;100387.00;4993262;28;20191;-79
2022/03/25 09:06:40;;;;;;;47.72;30.45;;;;;;;13.70;40.85;100391.16;4993843;28;20683;-79
2022/03/25 09:09:07;;;;;;;47.00;29.60;;;;;;;13.84;41.19;100382.22;4992552;28;20200;-78
2022/03/25 09:11:36;;;;;;;52.17;31.85;;;;;;;13.97;40.58;100391.38;4993970;28;20215;-79
2022/03/25 09:14:03;;;;;;;50.60;31.25;;;;;;;14.22;40.21;100379.91;4991953;28;20274;-76
2022/03/25 09:16:30;;;;;;;52.22;31.23;;;;;;;14.44;39.80;100387.59;4993525;28;20184;-79
2022/03/25 09:18:56;;;;;;;48.95;31.42;;;;;;;14.64;39.40;100377.41;4993779;28;20397;-76
2022/03/25 09:21:23;;;;;;;49.80;31.45;;;;;;;14.68;39.35;100384.41;4993733;28;20204;-77
2022/03/25 09:23:50;;;;;;;52.20;31.85;;;;;;;14.58;39.46;100384.06;4993413;28;20636;-77
2022/03/25 09:26:17;;;;;;;47.00;29.95;;;;;;;14.74;39.35;100381.28;4993201;28;20695;-79
2022/03/25 09:28:45;;;;;;;52.10;30.52;;;;;;;14.91;38.83;100386.50;4984350;28;20235;-88
2022/03/25 09:31:12;;;;;;;45.42;30.20;;;;;;;14.91;38.74;100381.09;4995218;28;20206;-88
2022/03/25 09:33:38;;;;;;;48.35;29.98;;;;;;;15.01;38.48;100381.34;4996270;28;20200;-87
2022/03/25 09:36:05;;;;;;;44.20;29.63;;;;;;;15.17;38.13;100386.66;4995780;28;20203;-86
2022/03/25 09:38:32;;;;;;;44.85;31.42;;;;;;;15.39;37.88;100375.28;4994693;28;20206;-84
2022/03/25 09:40:58;;;;;;;47.25;30.73;;;;;;;15.43;37.91;100377.69;4999916;28;20186;-84
2022/03/25 09:43:25;;;;;;;53.60;32.28;;;;;;;15.61;37.72;100382.88;5001118;28;20234;-82
2022/03/25 09:45:53;;;;;;;49.22;31.45;;;;;;;15.61;37.47;100375.59;5011750;28;20193;-83
2022/03/25 09:48:20;;;;;;;43.58;29.23;;;;;;;15.86;37.08;100373.13;5002288;28;20292;-83
2022/03/25 09:50:48;;;;;;;46.70;30.83;;;;;;;16.16;36.53;100379.16;5000164;28;20217;-86
2022/03/25 09:53:15;;;;;;;45.78;31.73;;;;;;;16.16;36.59;100376.44;5003538;28;20294;-82
2022/03/25 09:55:43;;;;;;;47.70;31.77;;;;;;;16.16;36.62;100373.72;4996519;28;20675;-81
2022/03/25 09:58:12;;;;;;;48.58;30.73;;;;;;;16.34;36.35;100373.44;4998206;28;20202;-85
2022/03/25 10:00:38;;;;;;;48.90;30.73;;;;;;;16.46;36.02;100373.44;4997673;28;20226;-82
2022/03/25 10:03:06;;;;;;;46.60;31.40;;;;;;;16.68;35.93;100374.63;4996055;28;20653;-83
2022/03/25 10:05:33;;;;;;;48.25;32.00;;;;;;;16.74;35.88;100368.78;5003868;28;20194;-80
2022/03/25 10:07:59;;;;;;;43.15;29.63;;;;;;;16.88;35.38;100363.22;5008930;28;20197;-82
2022/03/25 10:10:28;;;;;;;42.03;28.77;;;;;;;16.92;35.35;100368.47;5005281;28;20214;-86
2022/03/25 10:13:00;;;;;;;47.22;30.13;;;;;;;17.29;34.62;100355.75;5009235;28;20176;-84
2022/03/25 10:15:29;;;;;;;47.10;30.90;;;;;;;17.23;34.77;100353.47;5001340;28;20191;-88
2022/03/25 10:17:57;;;;;;;49.60;31.05;;;;;;;17.12;34.96;100354.28;5000719;28;20252;-89
2022/03/25 10:20:30;;;;;;;46.88;30.50;;;;;;;17.12;34.87;100354.28;4989239;28;20263;-87
2022/03/25 10:23:10;;;;;;;49.45;32.08;;;;;;;17.31;34.70;100353.78;5004769;28;20263;-88
2022/03/25 10:25:47;;;;;;;49.03;30.67;;;;;;;17.60;34.43;100345.28;4994188;28;20245;-91
2022/03/25 10:28:26;;;;;;;49.63;31.63;;;;;;;17.33;34.02;100346.38;4988568;28;20250;-87
2022/03/25 10:30:54;;;;;;;48.25;30.10;;;;;;;17.56;33.81;100339.19;4999364;28;20218;-86
2022/03/25 10:33:24;;;;;;;45.75;30.38;;;;;;;17.71;33.37;100340.75;4995400;28;20286;-84
2022/03/25 10:35:56;;;;;;;44.78;30.08;;;;;;;17.77;32.35;100344.00;4996684;28;20230;-86
2022/03/25 10:38:23;;;;;;;46.50;32.50;;;;;;;17.88;32.18;100344.94;4999226;28;20595;-86
2022/03/25 10:40:51;;;;;;;43.47;29.23;;;;;;;17.65;31.63;100343.94;4997143;28;20687;-84
2022/03/25 10:43:18;;;;;;;43.22;30.55;;;;;;;17.95;31.50;100336.28;4995733;28;20202;-85
2022/03/25 10:45:46;;;;;;;44.00;29.50;;;;;;;17.79;31.80;100337.44;5000547;28;20195;-87
2022/03/25 10:48:15;;;;;;;44.53;30.75;;;;;;;17.72;32.60;100331.59;4998800;28;20218;-88
2022/03/25 10:51:04;;;;;;;50.17;31.15;;;;;;;17.63;32.70;100343.19;5001268;28;20564;-85
2022/03/25 10:53:33;;;;;;;45.38;30.52;;;;;;;17.87;32.25;100337.75;5001607;28;20202;-83
2022/03/25 10:56:02;;;;;;;42.20;29.75;;;;;;;17.94;30.79;100340.88;5000404;28;20291;-84
2022/03/25 10:58:29;;;;;;;41.08;28.30;;;;;;;18.18;30.51;100339.94;4994842;28;20548;-88
2022/03/25 11:00:56;;;;;;;43.53;29.30;;;;;;;18.18;30.83;100334.50;5000241;28;20255;-85
2022/03/25 11:03:23;;;;;;;41.80;28.92;;;;;;;18.36;30.84;100332.19;4989035;28;20287;-88
2022/03/25 11:05:51;;;;;;;41.97;28.65;;;;;;;18.33;30.00;100336.88;4985323;28;20188;-86
2022/03/25 11:08:19;;;;;;;43.13;28.30;;;;;;;18.18;28.87;100334.50;4993745;28;20200;-85
2022/03/25 11:10:46;;;;;;;39.65;26.70;;;;;;;17.95;29.12;100328.13;4995822;28;21869;-84
2022/03/25 11:13:13;;;;;;;43.80;27.00;;;;;;;18.17;29.13;100335.50;5003228;28;20236;-84
2022/03/25 11:15:40;;;;;;;46.28;28.45;;;;;;;18.13;29.95;100324.84;5005398;28;20203;-84
2022/03/25 11:18:07;;;;;;;42.10;28.33;;;;;;;18.33;28.53;100317.81;5004596;28;20195;-86
2022/03/25 11:20:34;;;;;;;33.15;23.67;;;;;;;18.36;26.10;100326.72;5007446;28;20539;-83